Time;durP1;ratioP1;P1;durP2;ratioP2;P2;SDS_P1;SDS_P2;PMS_P1;PMS_P2;Temp;Humidity;BMP_temperature;BMP_pressure;BME280_temperature;BME280_humidity;BME280_pressure;Samples;Min_cycle;Max_cycle;Signal;HPM_P1;HPM_P2
2021/07/18 00:01:21;;;;;;;23.67;19.17;;;18.90;99.90;;;;;;5075896;28;20906;-78
2021/07/18 00:03:47;;;;;;;20.90;18.47;;;18.90;99.90;;;;;;5085275;28;20454;-77
2021/07/18 00:06:16;;;;;;;21.40;17.30;;;18.80;99.90;;;;;;5074715;28;20489;-78
2021/07/18 00:08:43;;;;;;;20.17;17.90;;;18.80;99.90;;;;;;5074146;28;20474;-78
2021/07/18 00:11:10;;;;;;;26.83;19.37;;;18.70;99.90;;;;;;5074053;28;20485;-77
2021/07/18 00:13:37;;;;;;;23.60;19.43;;;18.70;99.90;;;;;;5073883;28;20827;-77
2021/07/18 00:16:04;;;;;;;21.63;18.63;;;18.60;99.90;;;;;;5082305;28;20450;-79
2021/07/18 00:18:31;;;;;;;20.07;17.60;;;18.60;99.90;;;;;;5087256;28;20497;-78
2021/07/18 00:20:58;;;;;;;21.40;18.50;;;18.50;99.90;;;;;;5075932;28;20481;-78
2021/07/18 00:23:26;;;;;;;22.03;18.00;;;18.50;99.90;;;;;;5075450;28;20493;-78
2021/07/18 00:25:53;;;;;;;21.97;19.60;;;18.40;99.90;;;;;;5094177;28;20487;-78
2021/07/18 00:28:20;;;;;;;22.47;18.03;;;18.40;99.90;;;;;;5098422;28;20484;-81
2021/07/18 00:30:47;;;;;;;20.27;17.97;;;18.30;99.90;;;;;;5092883;28;20445;-78
2021/07/18 00:33:14;;;;;;;23.03;16.20;;;18.20;99.90;;;;;;5076356;28;20493;-79
2021/07/18 00:35:41;;;;;;;24.13;18.40;;;18.20;99.90;;;;;;5075302;28;20415;-78
2021/07/18 00:38:08;;;;;;;19.63;17.53;;;18.10;99.90;;;;;;5074388;28;20514;-78
2021/07/18 00:40:36;;;;;;;19.60;17.00;;;18.10;99.90;;;;;;5074271;28;20977;-78
2021/07/18 00:43:04;;;;;;;19.37;16.40;;;18.00;99.90;;;;;;5074425;28;20464;-78
2021/07/18 00:45:31;;;;;;;21.10;17.37;;;18.00;99.90;;;;;;5076596;28;20452;-79
2021/07/18 00:47:58;;;;;;;19.10;16.73;;;18.00;99.90;;;;;;5083644;28;20488;-78
2021/07/18 00:50:25;;;;;;;19.30;16.00;;;18.00;99.90;;;;;;5086573;28;20478;-79
2021/07/18 00:52:52;;;;;;;20.90;16.67;;;18.00;99.90;;;;;;5083504;28;20572;-79
2021/07/18 00:55:20;;;;;;;17.63;15.80;;;17.90;99.90;;;;;;5078899;28;20614;-79
2021/07/18 00:57:50;;;;;;;18.37;16.37;;;17.90;99.90;;;;;;5083430;28;20472;-77
2021/07/18 01:00:18;;;;;;;19.40;16.90;;;17.80;99.90;;;;;;5077363;28;20506;-79
2021/07/18 01:02:46;;;;;;;19.80;15.63;;;17.80;99.90;;;;;;5074624;28;20561;-79
2021/07/18 01:05:14;;;;;;;18.53;16.13;;;17.80;99.90;;;;;;5074644;28;20484;-79
2021/07/18 01:07:41;;;;;;;16.13;14.43;;;17.70;99.90;;;;;;5074353;28;20474;-78
2021/07/18 01:10:10;;;;;;;19.00;15.40;;;17.70;99.90;;;;;;5073750;28;20459;-78
2021/07/18 01:12:37;;;;;;;18.13;16.10;;;17.60;99.90;;;;;;5073510;28;20538;-79
2021/07/18 01:15:07;;;;;;;19.20;14.90;;;17.60;99.90;;;;;;5073515;28;20452;-79
2021/07/18 01:17:34;;;;;;;18.70;14.87;;;17.60;99.90;;;;;;5074807;28;20487;-79
2021/07/18 01:20:03;;;;;;;21.10;14.07;;;17.50;99.90;;;;;;5073684;28;20537;-79
2021/07/18 01:22:32;;;;;;;18.90;14.90;;;17.50;99.90;;;;;;5073792;28;20468;-79
2021/07/18 01:25:00;;;;;;;16.17;14.20;;;17.50;99.90;;;;;;5073692;28;20873;-79
2021/07/18 01:27:27;;;;;;;15.33;13.73;;;17.50;99.90;;;;;;5074363;28;20484;-79
2021/07/18 01:29:54;;;;;;;14.93;13.40;;;17.40;99.90;;;;;;5075925;28;20482;-79
2021/07/18 01:32:21;;;;;;;15.43;13.37;;;17.40;99.90;;;;;;5081928;28;20477;-79
2021/07/18 01:34:49;;;;;;;14.70;13.20;;;17.30;99.90;;;;;;5076019;28;20444;-79
2021/07/18 01:37:16;;;;;;;14.00;12.60;;;17.30;99.90;;;;;;5073535;28;20468;-78
2021/07/18 01:39:46;;;;;;;16.87;12.97;;;17.20;99.90;;;;;;5072789;28;21007;-77
2021/07/18 01:42:13;;;;;;;15.20;11.27;;;17.30;99.90;;;;;;5073433;28;20521;-78
2021/07/18 01:44:40;;;;;;;14.87;10.70;;;17.40;99.90;;;;;;5073366;28;20544;-78
2021/07/18 01:47:08;;;;;;;13.73;11.63;;;17.40;99.90;;;;;;5073413;28;20891;-77
2021/07/18 01:49:35;;;;;;;16.13;11.93;;;17.40;99.90;;;;;;5074526;28;21003;-78
2021/07/18 01:52:03;;;;;;;14.20;11.27;;;17.30;99.90;;;;;;5092617;28;20460;-80
2021/07/18 01:54:30;;;;;;;17.00;11.23;;;17.30;99.90;;;;;;5095127;28;20440;-79
2021/07/18 01:57:07;;;;;;;11.63;10.30;;;17.30;99.90;;;;;;5081507;28;20436;-79
2021/07/18 01:59:34;;;;;;;12.23;9.53;;;17.30;99.90;;;;;;5079506;28;20531;-79
2021/07/18 02:02:01;;;;;;;13.17;10.30;;;17.20;99.90;;;;;;5079122;28;20452;-79
2021/07/18 02:04:28;;;;;;;13.70;10.00;;;17.10;99.90;;;;;;5080648;28;20495;-79
2021/07/18 02:06:55;;;;;;;12.87;10.10;;;17.00;99.90;;;;;;5075482;28;20496;-79
2021/07/18 02:09:22;;;;;;;16.37;10.10;;;17.00;99.90;;;;;;5076806;28;21025;-80
2021/07/18 02:11:48;;;;;;;16.03;10.30;;;16.90;99.90;;;;;;5077404;28;20459;-80
2021/07/18 02:14:17;;;;;;;10.37;9.23;;;16.80;99.90;;;;;;5078306;28;20457;-80
2021/07/18 02:16:44;;;;;;;14.00;9.43;;;16.80;99.90;;;;;;5082449;28;20471;-80
2021/07/18 02:19:11;;;;;;;9.73;8.73;;;16.70;99.90;;;;;;5089984;28;20468;-78
2021/07/18 02:21:39;;;;;;;14.77;8.67;;;16.70;99.90;;;;;;5096597;28;20470;-79
2021/07/18 02:24:07;;;;;;;10.67;7.97;;;16.60;99.90;;;;;;5090766;28;20464;-79
2021/07/18 02:26:34;;;;;;;12.63;8.77;;;16.50;99.90;;;;;;5092803;28;20465;-79
2021/07/18 02:29:01;;;;;;;8.93;7.73;;;16.50;99.90;;;;;;5092367;28;20475;-80
2021/07/18 02:31:30;;;;;;;13.30;7.93;;;16.50;99.90;;;;;;5099225;28;20471;-79
2021/07/18 02:33:57;;;;;;;9.33;8.40;;;16.50;99.90;;;;;;5100413;28;20436;-79
2021/07/18 02:36:24;;;;;;;9.00;7.60;;;16.40;99.90;;;;;;5092809;28;20950;-80
2021/07/18 02:38:54;;;;;;;8.47;7.67;;;16.40;99.90;;;;;;5098505;28;20499;-80
2021/07/18 02:41:21;;;;;;;9.17;7.20;;;16.30;99.90;;;;;;5087252;28;20452;-80
2021/07/18 02:43:48;;;;;;;11.07;7.00;;;16.30;99.90;;;;;;5083777;28;20459;-80
2021/07/18 02:46:15;;;;;;;10.83;7.13;;;16.30;99.90;;;;;;5084066;28;20462;-80
2021/07/18 02:48:43;;;;;;;12.53;7.87;;;16.30;99.90;;;;;;5088633;28;20468;-79
2021/07/18 02:51:10;;;;;;;7.30;6.60;;;16.30;99.90;;;;;;5081273;28;20514;-78
2021/07/18 02:53:37;;;;;;;8.30;7.30;;;16.30;99.90;;;;;;5081162;28;20521;-78
2021/07/18 02:56:04;;;;;;;11.88;7.53;;;16.20;99.90;;;;;;5080728;28;20483;-79
2021/07/18 02:58:31;;;;;;;9.80;7.13;;;16.20;99.90;;;;;;5082058;28;20245;-80
2021/07/18 03:00:58;;;;;;;12.63;6.60;;;16.30;99.90;;;;;;5083466;28;20233;-80
2021/07/18 03:03:25;;;;;;;9.53;7.30;;;16.20;99.90;;;;;;5089559;28;20535;-80
2021/07/18 03:05:53;;;;;;;10.93;8.27;;;16.20;99.90;;;;;;5099640;28;20435;-80
2021/07/18 03:08:20;;;;;;;8.17;7.37;;;16.20;99.90;;;;;;5099719;28;20471;-80
2021/07/18 03:10:47;;;;;;;9.30;8.13;;;16.20;99.90;;;;;;5099719;28;20448;-82
2021/07/18 03:13:14;;;;;;;12.73;8.10;;;16.20;99.90;;;;;;5089636;28;20452;-81
2021/07/18 03:15:41;;;;;;;9.23;8.10;;;16.20;99.90;;;;;;5086008;28;20537;-80
2021/07/18 03:18:08;;;;;;;9.80;8.80;;;16.10;99.90;;;;;;5086987;28;20502;-80
2021/07/18 03:20:35;;;;;;;10.57;8.23;;;16.10;99.90;;;;;;5089584;28;20480;-79
2021/07/18 03:23:05;;;;;;;9.33;7.87;;;16.10;99.90;;;;;;5081532;28;20506;-79
2021/07/18 03:25:32;;;;;;;9.17;8.10;;;16.10;99.90;;;;;;5082001;28;20452;-79
2021/07/18 03:27:59;;;;;;;9.70;8.10;;;16.00;99.90;;;;;;5081578;28;20479;-79
2021/07/18 03:30:26;;;;;;;10.13;9.13;;;16.00;99.90;;;;;;5081954;28;20456;-80
2021/07/18 03:32:53;;;;;;;9.68;8.68;;;16.00;99.90;;;;;;5083726;28;20452;-79
2021/07/18 03:35:20;;;;;;;10.20;9.20;;;15.90;99.90;;;;;;5083899;28;20241;-79
2021/07/18 03:37:47;;;;;;;13.03;9.00;;;15.90;99.90;;;;;;5083229;28;20503;-80
2021/07/18 03:40:16;;;;;;;15.17;10.00;;;15.90;99.90;;;;;;5081212;28;20555;-80
2021/07/18 03:42:44;;;;;;;12.77;8.70;;;15.90;99.90;;;;;;5080962;28;20876;-79
2021/07/18 03:45:13;;;;;;;12.57;8.00;;;15.90;99.90;;;;;;5081585;28;20241;-80
2021/07/18 03:47:40;;;;;;;11.00;9.17;;;15.90;99.90;;;;;;5080492;28;20648;-78
2021/07/18 03:50:09;;;;;;;9.57;8.47;;;15.90;99.90;;;;;;5081738;28;20548;-79
2021/07/18 03:52:36;;;;;;;9.50;8.13;;;15.90;99.90;;;;;;5080748;28;20418;-79
2021/07/18 03:55:03;;;;;;;8.87;8.07;;;15.90;99.90;;;;;;5080357;28;20206;-80
2021/07/18 03:57:31;;;;;;;10.10;9.10;;;15.90;99.90;;;;;;5082615;28;20444;-79
2021/07/18 03:59:58;;;;;;;9.57;8.57;;;15.90;99.90;;;;;;5098787;28;20224;-80
2021/07/18 04:02:25;;;;;;;10.73;9.20;;;16.00;99.90;;;;;;5098674;28;20444;-80
2021/07/18 04:04:52;;;;;;;10.93;9.70;;;16.00;99.90;;;;;;5093620;28;20482;-78
2021/07/18 04:07:19;;;;;;;13.00;10.03;;;16.00;99.90;;;;;;5085665;28;20452;-78
2021/07/18 04:09:46;;;;;;;11.33;9.53;;;16.00;99.90;;;;;;5079339;28;20475;-78
2021/07/18 04:12:13;;;;;;;12.83;8.83;;;16.00;99.90;;;;;;5094157;28;20435;-80
2021/07/18 04:14:41;;;;;;;10.03;8.60;;;16.10;99.90;;;;;;5097627;28;20555;-80
2021/07/18 04:17:08;;;;;;;17.53;8.97;;;16.10;99.90;;;;;;5075105;28;20945;-78
2021/07/18 04:19:35;;;;;;;8.87;7.80;;;16.20;99.90;;;;;;5075019;28;20502;-78
2021/07/18 04:22:03;;;;;;;9.47;8.30;;;16.20;99.90;;;;;;5075361;28;20535;-79
2021/07/18 04:24:30;;;;;;;10.23;7.33;;;16.20;99.90;;;;;;5074748;28;20467;-78
2021/07/18 04:26:57;;;;;;;9.40;6.30;;;16.30;99.90;;;;;;5075002;28;20452;-78
2021/07/18 04:29:24;;;;;;;9.43;6.67;;;16.40;99.90;;;;;;5074501;28;20511;-79
2021/07/18 04:31:52;;;;;;;7.70;6.13;;;16.40;99.90;;;;;;5075557;28;20569;-79
2021/07/18 04:34:19;;;;;;;9.30;6.00;;;16.50;99.90;;;;;;5075086;28;20502;-79
2021/07/18 04:36:46;;;;;;;6.50;5.90;;;16.60;99.40;;;;;;5075518;28;20483;-79
2021/07/18 04:39:14;;;;;;;7.90;6.03;;;16.60;98.70;;;;;;5082868;28;20943;-80
2021/07/18 04:41:41;;;;;;;7.57;6.47;;;16.70;97.70;;;;;;5074273;28;20460;-79
2021/07/18 04:44:09;;;;;;;8.10;5.60;;;16.80;97.30;;;;;;5074104;28;20842;-77
2021/07/18 04:46:35;;;;;;;6.87;5.93;;;16.90;96.10;;;;;;5074345;28;20448;-79
2021/07/18 04:49:04;;;;;;;6.10;5.50;;;17.00;95.30;;;;;;5074417;28;20830;-78
2021/07/18 04:51:31;;;;;;;8.73;5.73;;;17.00;95.10;;;;;;5073704;28;20456;-79
2021/07/18 04:54:22;;;;;;;9.70;5.30;;;17.20;94.70;;;;;;5078269;28;20868;-77
2021/07/18 04:56:51;;;;;;;8.07;5.63;;;17.40;93.00;;;;;;5076244;28;20559;-78
2021/07/18 04:59:18;;;;;;;6.53;5.33;;;17.70;91.20;;;;;;5074054;28;21021;-78
2021/07/18 05:01:45;;;;;;;6.57;4.70;;;17.80;85.80;;;;;;5073965;28;20484;-79
2021/07/18 05:04:14;;;;;;;9.90;4.70;;;17.90;84.00;;;;;;5073744;28;21031;-77
2021/07/18 05:06:41;;;;;;;6.87;4.50;;;18.40;80.30;;;;;;5073049;28;20562;-76
2021/07/18 05:09:08;;;;;;;5.80;4.03;;;19.30;76.10;;;;;;5122267;22;20593;-78
2021/07/18 05:11:35;;;;;;;4.57;3.60;;;20.30;66.60;;;;;;5095684;28;20600;-78
2021/07/18 05:14:02;;;;;;;4.40;3.60;;;20.50;62.30;;;;;;5094232;28;20474;-79
2021/07/18 05:16:30;;;;;;;5.30;3.30;;;20.40;63.60;;;;;;5095024;28;20505;-77
2021/07/18 05:18:57;;;;;;;3.63;3.33;;;21.20;59.70;;;;;;5095090;28;20469;-78
2021/07/18 05:21:25;;;;;;;6.23;3.70;;;21.00;59.20;;;;;;5108537;28;20474;-78
2021/07/18 05:23:52;;;;;;;4.60;3.20;;;20.70;60.20;;;;;;5108072;28;20447;-79
2021/07/18 05:26:19;;;;;;;6.97;3.10;;;21.60;57.00;;;;;;5112361;28;20459;-78
2021/07/18 05:28:46;;;;;;;4.00;3.50;;;22.50;53.70;;;;;;5100282;28;20480;-77
2021/07/18 05:31:13;;;;;;;4.40;2.90;;;21.60;55.30;;;;;;5109056;28;20534;-79
2021/07/18 05:33:40;;;;;;;4.60;2.80;;;21.90;54.90;;;;;;5097523;28;20487;-78
2021/07/18 05:36:10;;;;;;;6.03;3.10;;;22.80;51.50;;;;;;5111148;28;20422;-79
2021/07/18 05:38:38;;;;;;;4.43;3.07;;;21.90;53.90;;;;;;5112729;28;20509;-78
2021/07/18 05:41:05;;;;;;;7.10;2.80;;;22.40;52.20;;;;;;5104322;28;20459;-78
2021/07/18 05:43:32;;;;;;;3.60;3.10;;;23.00;50.40;;;;;;5110865;28;20467;-78
2021/07/18 05:45:59;;;;;;;4.97;3.67;;;21.70;54.10;;;;;;5114141;28;20424;-79
2021/07/18 05:48:26;;;;;;;3.60;3.17;;;21.00;57.60;;;;;;5116297;28;20473;-79
2021/07/18 05:50:53;;;;;;;5.30;3.03;;;22.10;53.30;;;;;;5117819;28;20448;-81
2021/07/18 05:53:20;;;;;;;4.70;3.10;;;22.60;51.30;;;;;;5117937;28;20456;-80
2021/07/18 05:55:48;;;;;;;3.57;3.07;;;22.40;53.00;;;;;;5118029;28;20433;-80
2021/07/18 05:58:15;;;;;;;3.60;3.07;;;22.80;51.50;;;;;;5117939;28;20437;-80
2021/07/18 06:00:42;;;;;;;3.90;2.47;;;22.50;51.20;;;;;;5108355;28;20524;-78
2021/07/18 06:03:09;;;;;;;2.87;2.60;;;22.60;51.30;;;;;;5095978;28;20461;-78
2021/07/18 06:05:36;;;;;;;7.00;3.37;;;23.20;50.00;;;;;;5115870;28;20442;-80
2021/07/18 06:08:04;;;;;;;3.20;2.90;;;23.40;48.80;;;;;;5117892;28;20435;-79
2021/07/18 06:10:31;;;;;;;3.27;2.30;;;23.60;48.50;;;;;;5116525;28;20448;-79
2021/07/18 06:12:59;;;;;;;4.00;2.70;;;23.60;47.90;;;;;;5117493;28;20412;-80
2021/07/18 06:15:27;;;;;;;6.73;2.67;;;22.90;50.20;;;;;;5117849;28;20470;-80
2021/07/18 06:17:53;;;;;;;2.90;2.57;;;23.00;51.70;;;;;;5117756;28;20464;-79
2021/07/18 06:20:21;;;;;;;5.83;2.63;;;23.40;49.70;;;;;;5104397;28;20487;-78
2021/07/18 06:22:48;;;;;;;3.97;2.37;;;23.00;51.40;;;;;;5094121;28;20435;-78
2021/07/18 06:25:15;;;;;;;5.50;2.70;;;23.40;49.90;;;;;;5093254;28;20451;-78
2021/07/18 06:27:43;;;;;;;3.10;2.33;;;23.60;48.80;;;;;;5092896;28;20435;-78
2021/07/18 06:30:12;;;;;;;4.93;2.70;;;23.80;47.60;;;;;;5093467;28;20473;-77
2021/07/18 06:32:40;;;;;;;3.27;2.47;;;23.60;48.90;;;;;;5092719;28;20432;-78
2021/07/18 06:35:08;;;;;;;4.47;2.33;;;23.90;47.60;;;;;;5092521;28;20562;-78
2021/07/18 06:37:35;;;;;;;3.30;2.20;;;24.00;47.70;;;;;;5093578;28;20474;-78
2021/07/18 06:40:04;;;;;;;2.50;2.30;;;23.40;50.00;;;;;;5094339;28;20568;-78
2021/07/18 06:42:31;;;;;;;4.63;2.47;;;23.80;48.10;;;;;;5093903;28;20633;-78
2021/07/18 06:44:59;;;;;;;3.43;2.40;;;23.10;49.80;;;;;;5093341;28;20498;-79
2021/07/18 06:47:27;;;;;;;2.80;2.47;;;22.40;51.10;;;;;;5095250;28;20458;-77
2021/07/18 06:49:54;;;;;;;3.83;2.43;;;22.10;52.60;;;;;;5101926;28;20535;-77
2021/07/18 06:52:21;;;;;;;4.27;2.20;;;22.00;53.30;;;;;;5106922;28;20512;-79
2021/07/18 06:54:48;;;;;;;4.43;2.30;;;21.90;53.10;;;;;;5110287;28;20870;-79
2021/07/18 06:57:15;;;;;;;4.90;2.13;;;22.10;53.30;;;;;;5106170;28;20419;-78
2021/07/18 06:59:42;;;;;;;4.30;2.40;;;22.80;51.50;;;;;;5097633;28;20468;-78
2021/07/18 07:02:09;;;;;;;9.07;2.77;;;22.20;52.20;;;;;;5097919;28;20428;-78
2021/07/18 07:04:37;;;;;;;2.73;2.40;;;22.00;53.80;;;;;;5096664;28;20547;-79
2021/07/18 07:07:05;;;;;;;3.53;2.43;;;21.80;53.90;;;;;;5097796;28;20459;-80
2021/07/18 07:09:32;;;;;;;8.33;2.77;;;21.50;54.20;;;;;;5096931;28;20507;-78
2021/07/18 07:11:59;;;;;;;4.50;3.10;;;21.20;57.00;;;;;;5097199;28;20454;-79
2021/07/18 07:14:26;;;;;;;6.60;2.43;;;21.00;57.80;;;;;;5097208;28;20879;-79
2021/07/18 07:16:53;;;;;;;3.30;2.40;;;21.00;57.90;;;;;;5096491;28;20537;-78
2021/07/18 07:19:20;;;;;;;5.00;2.80;;;20.90;57.80;;;;;;5100860;28;20470;-78
2021/07/18 07:21:49;;;;;;;5.13;2.50;;;20.60;59.20;;;;;;5102005;28;20851;-78
2021/07/18 07:24:16;;;;;;;4.30;2.40;;;20.70;59.30;;;;;;5101871;28;20446;-78
2021/07/18 07:26:44;;;;;;;2.10;1.90;;;20.60;59.20;;;;;;5102719;28;20533;-78
2021/07/18 07:29:11;;;;;;;5.27;2.53;;;20.60;58.60;;;;;;5100750;28;20500;-79
2021/07/18 07:31:38;;;;;;;4.40;2.30;;;20.90;59.40;;;;;;5101778;28;20455;-79
2021/07/18 07:34:05;;;;;;;5.47;2.37;;;20.80;58.40;;;;;;5101862;28;20501;-79
2021/07/18 07:36:32;;;;;;;3.60;2.33;;;21.00;57.00;;;;;;5102598;28;20454;-79
2021/07/18 07:39:00;;;;;;;4.07;2.53;;;21.10;56.60;;;;;;5101410;28;21005;-79
2021/07/18 07:41:27;;;;;;;3.47;2.07;;;21.10;54.90;;;;;;5100859;28;20848;-79
2021/07/18 07:43:57;;;;;;;2.73;2.33;;;21.00;55.90;;;;;;5100976;28;20794;-78
2021/07/18 07:46:24;;;;;;;3.47;2.50;;;20.90;55.50;;;;;;5103180;28;20554;-79
2021/07/18 07:48:52;;;;;;;4.77;2.37;;;20.80;58.20;;;;;;5104872;28;20835;-79
2021/07/18 07:51:19;;;;;;;2.77;2.10;;;21.00;57.00;;;;;;5103620;28;20463;-78
2021/07/18 07:53:50;;;;;;;3.67;2.47;;;21.20;56.40;;;;;;5103986;28;20426;-78
2021/07/18 07:56:18;;;;;;;2.60;2.40;;;21.20;56.40;;;;;;5103363;28;20522;-79
2021/07/18 07:58:46;;;;;;;2.70;2.50;;;21.40;56.70;;;;;;5104923;28;20536;-79
2021/07/18 08:01:13;;;;;;;3.00;2.70;;;21.40;54.20;;;;;;5108369;28;20490;-79
2021/07/18 08:03:39;;;;;;;6.57;2.30;;;21.50;54.80;;;;;;5112978;28;20471;-77
2021/07/18 08:06:07;;;;;;;7.33;2.10;;;21.60;54.50;;;;;;5113147;28;20793;-79
2021/07/18 08:08:33;;;;;;;4.20;2.53;;;21.80;55.20;;;;;;5109427;28;20449;-79
2021/07/18 08:11:01;;;;;;;5.20;2.30;;;21.80;54.10;;;;;;5106232;28;20461;-80
2021/07/18 08:13:29;;;;;;;2.30;1.60;;;22.00;53.70;;;;;;5117168;28;20459;-80
2021/07/18 08:15:56;;;;;;;3.40;1.90;;;21.60;53.20;;;;;;5113363;28;20445;-80
2021/07/18 08:18:23;;;;;;;2.73;2.23;;;21.70;52.30;;;;;;5119193;28;20455;-81
2021/07/18 08:20:51;;;;;;;5.53;3.00;;;21.80;52.80;;;;;;5113813;28;20517;-79
2021/07/18 08:23:18;;;;;;;3.50;2.10;;;22.00;52.40;;;;;;5104097;28;20504;-78
2021/07/18 08:25:46;;;;;;;2.67;2.23;;;21.80;50.50;;;;;;5105911;28;20458;-78
2021/07/18 08:28:14;;;;;;;6.23;2.30;;;21.70;51.30;;;;;;5109326;28;20543;-78
2021/07/18 08:30:43;;;;;;;5.63;2.50;;;21.90;50.90;;;;;;5108981;28;20517;-78
2021/07/18 08:33:10;;;;;;;6.00;1.90;;;22.30;51.00;;;;;;5109357;28;20433;-79
2021/07/18 08:35:38;;;;;;;2.20;1.97;;;22.20;51.60;;;;;;5112813;28;20459;-78
2021/07/18 08:38:08;;;;;;;2.80;2.43;;;21.90;51.90;;;;;;5110096;28;20460;-79
2021/07/18 08:40:39;;;;;;;4.17;2.53;;;22.10;51.10;;;;;;5111087;28;20892;-79
2021/07/18 08:43:07;;;;;;;6.07;2.67;;;22.10;50.80;;;;;;5109331;28;20432;-79
2021/07/18 08:45:34;;;;;;;5.47;2.20;;;22.00;50.70;;;;;;5104477;28;20453;-79
2021/07/18 08:48:07;;;;;;;7.10;1.90;;;22.00;52.60;;;;;;5106730;28;20658;-79
2021/07/18 08:50:35;;;;;;;5.73;2.60;;;22.20;52.10;;;;;;5109756;28;20437;-78
2021/07/18 08:53:03;;;;;;;4.23;2.23;;;22.40;51.40;;;;;;5104469;28;20966;-78
2021/07/18 08:55:31;;;;;;;4.67;2.23;;;22.70;50.90;;;;;;5107966;28;20455;-78
2021/07/18 08:57:58;;;;;;;5.80;2.37;;;22.50;51.20;;;;;;5114126;28;20459;-78
2021/07/18 09:00:25;;;;;;;3.63;2.00;;;22.70;49.90;;;;;;5106719;28;20976;-78
2021/07/18 09:02:53;;;;;;;3.00;2.33;;;22.50;51.20;;;;;;5113357;28;20504;-78
2021/07/18 09:05:22;;;;;;;4.53;2.07;;;22.60;51.10;;;;;;5110937;28;20456;-78
2021/07/18 09:07:51;;;;;;;2.90;1.97;;;22.90;49.60;;;;;;5112720;28;20461;-77
2021/07/18 09:10:27;;;;;;;10.13;2.13;;;23.00;49.80;;;;;;5116197;28;20460;-78
2021/07/18 09:13:05;;;;;;;3.47;2.70;;;23.10;49.30;;;;;;5106569;28;20831;-79
2021/07/18 09:15:43;;;;;;;3.27;2.60;;;23.00;49.30;;;;;;5105976;28;20455;-78
2021/07/18 09:18:11;;;;;;;3.00;2.60;;;22.80;50.00;;;;;;5106079;28;20472;-78
2021/07/18 09:20:43;;;;;;;3.13;2.60;;;22.60;50.10;;;;;;5103717;28;20555;-78
2021/07/18 09:23:13;;;;;;;2.40;2.20;;;22.70;50.00;;;;;;5103757;28;20448;-78
2021/07/18 09:25:40;;;;;;;4.70;2.47;;;22.90;49.40;;;;;;5103364;28;20465;-78
2021/07/18 09:28:15;;;;;;;2.70;2.03;;;23.00;48.90;;;;;;5103770;28;20476;-78
2021/07/18 09:30:43;;;;;;;3.00;2.30;;;23.20;48.10;;;;;;5102227;28;20479;-79
2021/07/18 09:33:22;;;;;;;4.70;2.47;;;23.20;48.60;;;;;;5101090;28;20475;-78
2021/07/18 09:35:52;;;;;;;2.90;2.47;;;23.10;48.90;;;;;;5101104;28;20495;-78
2021/07/18 09:38:23;;;;;;;5.73;2.83;;;23.10;48.50;;;;;;5101208;28;20477;-78
2021/07/18 09:40:57;;;;;;;5.90;2.60;;;23.10;49.70;;;;;;5105338;28;20481;-79
2021/07/18 09:43:25;;;;;;;3.40;2.40;;;23.30;48.60;;;;;;5101057;28;20448;-79
2021/07/18 09:46:00;;;;;;;3.07;2.10;;;23.60;47.30;;;;;;5101077;28;20483;-78
2021/07/18 09:48:38;;;;;;;3.13;2.60;;;23.20;49.00;;;;;;5106026;28;20560;-77
2021/07/18 09:51:11;;;;;;;4.60;2.90;;;23.40;48.30;;;;;;5102358;28;20441;-78
2021/07/18 09:53:39;;;;;;;3.60;2.57;;;23.20;48.60;;;;;;5104536;28;20456;-78
2021/07/18 09:56:08;;;;;;;2.60;2.40;;;23.20;48.90;;;;;;5100487;28;20703;-79
2021/07/18 09:58:36;;;;;;;2.47;2.27;;;23.20;48.50;;;;;;5098554;28;20432;-77
2021/07/18 10:01:07;;;;;;;3.37;2.57;;;23.60;48.90;;;;;;5106138;28;20480;-78
2021/07/18 10:03:35;;;;;;;7.17;3.03;;;23.80;47.00;;;;;;5102336;28;20559;-79
2021/07/18 10:06:07;;;;;;;6.63;2.50;;;23.90;45.60;;;;;;5107846;28;20876;-78
2021/07/18 10:08:37;;;;;;;6.43;2.30;;;24.10;45.00;;;;;;5108849;28;20489;-78
2021/07/18 10:11:04;;;;;;;3.80;2.30;;;23.80;45.90;;;;;;5100960;28;20410;-79
2021/07/18 10:13:31;;;;;;;3.13;2.57;;;24.00;46.90;;;;;;5101402;28;20454;-78
2021/07/18 10:15:58;;;;;;;4.43;2.70;;;24.10;46.30;;;;;;5104686;28;20458;-78
2021/07/18 10:18:25;;;;;;;2.73;2.47;;;24.50;46.00;;;;;;5099617;28;20478;-77
2021/07/18 10:20:53;;;;;;;3.23;2.43;;;24.70;45.20;;;;;;5100121;28;20462;-79
2021/07/18 10:23:22;;;;;;;4.93;2.57;;;24.70;45.90;;;;;;5099260;28;20483;-78
2021/07/18 10:25:52;;;;;;;4.20;2.30;;;25.00;45.90;;;;;;5104180;28;20518;-76
2021/07/18 10:28:19;;;;;;;3.50;2.50;;;25.00;43.50;;;;;;5102368;28;20462;-79
2021/07/18 10:30:50;;;;;;;4.00;2.53;;;25.10;43.50;;;;;;5106588;28;20428;-78
2021/07/18 10:33:19;;;;;;;3.77;2.47;;;24.90;43.90;;;;;;5116507;28;20568;-78
2021/07/18 10:35:47;;;;;;;3.17;2.60;;;24.80;43.90;;;;;;5109782;28;20430;-78
2021/07/18 10:38:16;;;;;;;3.47;2.53;;;24.60;45.60;;;;;;5116807;28;20518;-78
2021/07/18 10:40:48;;;;;;;3.03;2.73;;;24.60;45.10;;;;;;5106385;28;20552;-79
2021/07/18 10:43:39;;;;;;;3.23;2.70;;;24.60;46.60;;;;;;5104269;28;20462;-80
2021/07/18 10:46:08;;;;;;;4.20;2.40;;;24.50;45.10;;;;;;5106311;28;20452;-78
2021/07/18 10:48:43;;;;;;;3.07;2.60;;;24.90;44.90;;;;;;5101013;28;20466;-78
2021/07/18 10:51:17;;;;;;;2.57;2.33;;;25.40;43.80;;;;;;5105341;28;20852;-78
2021/07/18 10:53:45;;;;;;;2.63;2.43;;;25.40;43.80;;;;;;5112035;28;20518;-79
2021/07/18 10:56:12;;;;;;;6.73;2.80;;;25.40;43.80;;;;;;5105970;28;20952;-78
2021/07/18 10:58:54;;;;;;;3.20;2.87;;;25.40;43.80;;;;;;5107023;28;20498;-78
2021/07/18 11:01:33;;;;;;;2.50;2.30;;;25.30;43.70;;;;;;5110174;28;20482;-79
2021/07/18 11:04:00;;;;;;;3.10;2.80;;;25.30;43.70;;;;;;5109742;28;20926;-79
2021/07/18 11:06:29;;;;;;;4.80;2.90;;;25.50;43.80;;;;;;5108783;28;20774;-79
2021/07/18 11:09:19;;;;;;;4.40;2.50;;;25.60;43.30;;;;;;5117264;22;20491;-78
2021/07/18 11:11:57;;;;;;;8.23;3.53;;;25.60;43.90;;;;;;5112869;28;20484;-80
2021/07/18 11:14:36;;;;;;;4.43;2.57;;;25.80;42.10;;;;;;5111160;28;20500;-79
2021/07/18 11:17:06;;;;;;;3.53;2.60;;;25.90;41.90;;;;;;5111974;28;20519;-79
2021/07/18 11:19:56;;;;;;;5.60;2.00;;;25.80;40.80;;;;;;5113280;28;20474;-78
2021/07/18 11:23:01;;;;;;;3.00;2.23;;;25.80;41.20;;;;;;5106377;28;20437;-77
2021/07/18 11:25:59;;;;;;;4.27;2.27;;;25.90;42.30;;;;;;5100763;28;20456;-77
2021/07/18 11:28:50;;;;;;;2.93;2.27;;;26.00;41.30;;;;;;5103692;28;20500;-78
2021/07/18 11:31:25;;;;;;;3.90;2.23;;;26.10;40.70;;;;;;5101741;28;20443;-79
2021/07/18 11:34:10;;;;;;;4.10;2.70;;;26.00;41.60;;;;;;5100065;28;20480;-79
2021/07/18 11:36:57;;;;;;;3.90;2.90;;;26.00;41.20;;;;;;5098514;28;20551;-78
2021/07/18 11:39:27;;;;;;;5.17;3.23;;;26.00;41.20;;;;;;5102785;28;20491;-79
2021/07/18 11:41:55;;;;;;;3.70;2.70;;;26.10;40.40;;;;;;5104311;28;20534;-78
2021/07/18 11:44:29;;;;;;;4.57;3.13;;;26.10;41.30;;;;;;5097209;28;20467;-79
2021/07/18 11:47:05;;;;;;;7.90;3.37;;;25.70;40.30;;;;;;5096231;28;20414;-78
2021/07/18 11:49:35;;;;;;;6.10;3.13;;;26.00;39.50;;;;;;5095538;28;20472;-79
2021/07/18 11:52:03;;;;;;;4.50;3.70;;;26.20;39.20;;;;;;5095323;28;20502;-77
2021/07/18 11:54:30;;;;;;;5.53;3.67;;;25.90;40.20;;;;;;5094779;28;20460;-79
2021/07/18 11:56:57;;;;;;;4.97;2.50;;;26.00;39.90;;;;;;5095978;28;20472;-80
2021/07/18 11:59:26;;;;;;;3.73;2.93;;;26.10;38.90;;;;;;5096417;28;20477;-79
2021/07/18 12:01:54;;;;;;;5.73;3.03;;;26.40;39.70;;;;;;5096250;28;20575;-79
2021/07/18 12:04:24;;;;;;;10.50;3.60;;;26.20;40.90;;;;;;5107850;28;20450;-78
2021/07/18 12:06:53;;;;;;;4.60;3.73;;;26.40;40.80;;;;;;5109767;28;20459;-79
2021/07/18 12:09:21;;;;;;;7.93;3.90;;;26.20;38.20;;;;;;5108774;28;20445;-79
2021/07/18 12:11:51;;;;;;;9.03;4.67;;;25.90;38.70;;;;;;5103970;28;20458;-78
2021/07/18 12:14:18;;;;;;;5.60;4.57;;;26.00;38.40;;;;;;5103865;28;20432;-79
2021/07/18 12:16:46;;;;;;;8.13;4.30;;;26.30;37.70;;;;;;5100022;28;20459;-78
2021/07/18 12:19:15;;;;;;;5.00;4.50;;;26.60;37.30;;;;;;5098077;28;20843;-79
2021/07/18 12:21:45;;;;;;;5.80;4.50;;;26.90;37.10;;;;;;5096475;28;20481;-79
2021/07/18 12:24:20;;;;;;;4.87;4.00;;;26.40;37.40;;;;;;5097858;28;20435;-79
2021/07/18 12:26:50;;;;;;;10.97;5.00;;;26.20;37.80;;;;;;5096427;28;20628;-79
2021/07/18 12:29:17;;;;;;;6.40;4.77;;;26.10;38.20;;;;;;5112461;28;20446;-80
2021/07/18 12:31:46;;;;;;;8.13;3.63;;;26.30;39.20;;;;;;5113609;28;20442;-77
2021/07/18 12:34:18;;;;;;;4.87;4.17;;;26.90;38.80;;;;;;5104160;28;20516;-81
2021/07/18 12:37:01;;;;;;;7.57;4.13;;;27.30;37.50;;;;;;5103280;28;20826;-78
2021/07/18 12:39:30;;;;;;;6.70;4.63;;;27.10;37.10;;;;;;5098591;28;20476;-78
2021/07/18 12:41:59;;;;;;;8.57;5.13;;;26.80;38.00;;;;;;5098866;28;20485;-78
2021/07/18 12:44:28;;;;;;;6.73;4.70;;;26.50;37.60;;;;;;5094840;28;20459;-79
2021/07/18 12:47:18;;;;;;;8.00;3.90;;;26.90;37.90;;;;;;5094741;28;20553;-79
2021/07/18 12:49:45;;;;;;;5.87;3.97;;;27.00;37.90;;;;;;5094311;28;20519;-79
2021/07/18 12:52:13;;;;;;;4.23;3.80;;;27.10;38.00;;;;;;5094998;28;20477;-78